Terminal Aerodrome Forecast
Issued by NWS Mt. Holly, NJ

Home | Current Version | Previous Version | Text Only | Print | Product List | Glossary On
Versions: 1 2 3 4 5 6 7 8 9 10 11 12 13 14 15 16 17 18 19 20 21 22 23
000
FTUS41 KPHI 260500
TAFTTN
TAF
KTTN 260537Z 2606/2706 VRB04KT P6SM OVC100
     FM261200 03008KT 5SM -RA OVC040
     FM261500 05010G18KT 2SM -RASN OVC007
     FM261900 05012G22KT 3/4SM -SN OVC004
     FM270100 36012KT 3SM -SN OVC020=

USA.gov is the U.S. government's official web portal to all federal, state and local government web resources and services.